createdAt,value
2023-10-22T00:00:49.513Z,0.00
2023-10-22T00:01:49.456Z,0.00
2023-10-22T00:02:49.531Z,0.00
2023-10-22T00:03:49.546Z,0.00
2023-10-22T00:04:49.456Z,0.00
2023-10-22T00:05:49.420Z,0.00
2023-10-22T00:06:49.385Z,0.00
2023-10-22T00:07:49.395Z,0.00
2023-10-22T00:08:49.462Z,0.00
2023-10-22T00:09:49.353Z,0.00
2023-10-22T00:10:49.374Z,0.00
2023-10-22T00:11:49.500Z,0.00
2023-10-22T00:12:49.333Z,0.00
2023-10-22T00:13:49.320Z,0.00
2023-10-22T00:14:49.349Z,0.00
2023-10-22T00:15:49.332Z,0.00
2023-10-22T00:16:49.304Z,0.00
2023-10-22T00:17:49.357Z,0.00
2023-10-22T00:18:49.312Z,0.00
2023-10-22T00:19:49.268Z,0.00
2023-10-22T00:20:49.290Z,0.00
2023-10-22T00:21:49.241Z,0.00
2023-10-22T00:22:49.223Z,0.00
2023-10-22T00:23:49.328Z,0.00
2023-10-22T00:24:49.229Z,0.00
2023-10-22T00:25:49.208Z,0.00
2023-10-22T00:26:49.226Z,0.00
2023-10-22T00:27:49.168Z,0.00
2023-10-22T00:28:49.162Z,0.00
2023-10-22T00:29:49.218Z,0.00
2023-10-22T00:30:49.163Z,0.00
2023-10-22T00:31:49.134Z,0.00
2023-10-22T00:32:49.237Z,0.00
2023-10-22T00:33:49.190Z,0.00
2023-10-22T00:34:49.094Z,0.00
2023-10-22T00:35:49.140Z,0.00
2023-10-22T00:36:49.105Z,0.00
2023-10-22T00:37:49.051Z,0.00
2023-10-22T00:38:49.083Z,0.00
2023-10-22T00:39:49.031Z,0.00
2023-10-22T00:40:49.078Z,0.00
2023-10-22T00:41:49.905Z,0.00
2023-10-22T00:42:49.269Z,0.00
2023-10-22T00:43:49.008Z,0.00
2023-10-22T00:44:49.121Z,0.00
2023-10-22T00:45:49.022Z,0.00
2023-10-22T00:46:48.990Z,0.00
2023-10-22T00:47:49.052Z,0.00
2023-10-22T00:48:48.956Z,0.00
2023-10-22T00:49:48.939Z,0.00
2023-10-22T00:50:48.993Z,0.00
2023-10-22T00:51:48.958Z,0.00
2023-10-22T00:52:48.899Z,0.00
2023-10-22T00:53:48.953Z,0.00
2023-10-22T00:54:48.892Z,0.00
2023-10-22T00:55:48.869Z,0.00
2023-10-22T00:56:48.964Z,0.00
2023-10-22T00:57:48.852Z,0.00
2023-10-22T00:58:48.869Z,0.00
2023-10-22T00:59:48.862Z,0.00
2023-10-22T01:00:48.845Z,0.00
2023-10-22T01:01:48.826Z,0.00
2023-10-22T01:02:48.994Z,0.00
2023-10-22T01:03:48.834Z,0.00
2023-10-22T01:04:48.925Z,0.00
2023-10-22T01:05:48.826Z,0.00
2023-10-22T01:06:48.774Z,0.00
2023-10-22T01:07:48.776Z,0.00
2023-10-22T01:08:48.837Z,0.00
2023-10-22T01:09:48.752Z,0.00
2023-10-22T01:10:48.765Z,0.00
2023-10-22T01:11:48.743Z,0.00
2023-10-22T01:12:48.705Z,0.00
2023-10-22T01:13:48.697Z,0.00
2023-10-22T01:14:48.708Z,0.00
2023-10-22T01:15:48.700Z,0.00
2023-10-22T01:16:48.714Z,0.00
2023-10-22T01:17:48.742Z,0.00
2023-10-22T01:18:48.693Z,0.00
2023-10-22T01:19:48.649Z,0.00
2023-10-22T01:20:48.669Z,0.00
2023-10-22T01:21:48.626Z,0.00
2023-10-22T01:22:48.620Z,0.00
2023-10-22T01:23:48.595Z,0.00
2023-10-22T01:24:48.598Z,0.00
2023-10-22T01:25:48.552Z,0.00
2023-10-22T01:26:49.546Z,0.00
2023-10-22T01:27:48.554Z,0.00
2023-10-22T01:28:48.555Z,0.00
2023-10-22T01:29:48.556Z,0.00
2023-10-22T01:30:49.380Z,0.00
2023-10-22T01:31:48.509Z,0.00
2023-10-22T01:32:48.635Z,0.00
2023-10-22T01:33:48.553Z,0.00
2023-10-22T01:34:48.486Z,0.00
2023-10-22T01:35:48.512Z,0.00
2023-10-22T01:36:48.546Z,0.00
2023-10-22T01:37:48.429Z,0.00
2023-10-22T01:38:48.477Z,0.00
2023-10-22T01:39:48.469Z,0.00
2023-10-22T01:40:51.017Z,0.00
2023-10-22T01:41:48.443Z,0.00
2023-10-22T01:42:48.407Z,0.00
2023-10-22T01:43:48.399Z,0.00
2023-10-22T01:44:48.398Z,0.00
2023-10-22T01:45:48.348Z,0.00
2023-10-22T01:46:48.413Z,0.00
2023-10-22T01:47:48.398Z,0.00
2023-10-22T01:48:48.339Z,0.00
2023-10-22T01:49:48.316Z,0.00
2023-10-22T01:50:48.314Z,0.00
2023-10-22T01:51:48.298Z,0.00
2023-10-22T01:52:48.273Z,0.00
2023-10-22T01:53:48.311Z,0.00
2023-10-22T01:54:48.276Z,0.00
2023-10-22T01:55:48.250Z,0.00
2023-10-22T01:56:48.314Z,0.00
2023-10-22T01:57:48.234Z,0.00
2023-10-22T01:58:48.220Z,0.00
2023-10-22T01:59:48.227Z,0.00
2023-10-22T02:00:48.260Z,0.00
2023-10-22T02:01:48.314Z,0.00
2023-10-22T02:02:48.204Z,0.00
2023-10-22T02:03:48.279Z,0.00
2023-10-22T02:04:48.158Z,0.00
2023-10-22T02:05:48.177Z,0.00
2023-10-22T02:06:48.143Z,0.00
2023-10-22T02:07:48.131Z,0.00
2023-10-22T02:08:48.199Z,0.00
2023-10-22T02:09:48.100Z,0.00
2023-10-22T02:10:48.165Z,0.00
2023-10-22T02:11:48.095Z,0.00
2023-10-22T02:12:48.133Z,0.00
2023-10-22T02:13:48.073Z,0.00
2023-10-22T02:14:48.104Z,0.00
2023-10-22T02:15:48.023Z,0.00
2023-10-22T02:16:48.122Z,0.00
2023-10-22T02:17:48.094Z,0.00
2023-10-22T02:18:48.035Z,0.00
2023-10-22T02:19:48.023Z,0.00
2023-10-22T02:20:48.012Z,0.00
2023-10-22T02:21:47.964Z,0.00
2023-10-22T02:22:47.965Z,0.00
2023-10-22T02:23:47.972Z,0.00
2023-10-22T02:24:47.981Z,0.00
2023-10-22T02:25:47.954Z,0.00
2023-10-22T02:26:47.971Z,0.00
2023-10-22T02:27:47.914Z,0.00
2023-10-22T02:28:47.915Z,0.00
2023-10-22T02:29:48.066Z,0.00
2023-10-22T02:30:47.894Z,0.00
2023-10-22T02:31:47.858Z,0.00
2023-10-22T02:32:47.905Z,0.00
2023-10-22T02:33:47.907Z,0.00
2023-10-22T02:34:47.905Z,0.00
2023-10-22T02:35:47.899Z,0.00
2023-10-22T02:36:47.813Z,0.00
2023-10-22T02:37:47.800Z,0.00
2023-10-22T02:38:47.901Z,0.00
2023-10-22T02:39:47.797Z,0.00
2023-10-22T02:40:47.778Z,0.00
2023-10-22T02:41:47.802Z,0.00
2023-10-22T02:42:47.772Z,0.00
2023-10-22T02:43:47.743Z,0.00
2023-10-22T02:44:47.741Z,0.00
2023-10-22T02:45:47.715Z,0.00
2023-10-22T02:46:47.736Z,0.00
2023-10-22T02:47:47.765Z,0.00
2023-10-22T02:48:47.715Z,0.00
2023-10-22T02:49:47.669Z,0.00
2023-10-22T02:50:47.705Z,0.00
2023-10-22T02:51:47.648Z,0.00
2023-10-22T02:52:47.653Z,0.00
2023-10-22T02:53:47.636Z,0.00
2023-10-22T02:54:47.639Z,0.00
2023-10-22T02:55:47.665Z,0.00
2023-10-22T02:56:47.632Z,0.00
2023-10-22T02:57:47.657Z,0.00
2023-10-22T02:58:47.621Z,0.00
2023-10-22T02:59:47.586Z,0.00
2023-10-22T03:00:47.695Z,0.00
2023-10-22T03:01:47.564Z,0.00
2023-10-22T03:02:47.613Z,0.00
2023-10-22T03:03:47.597Z,0.00
2023-10-22T03:04:47.563Z,0.00
2023-10-22T03:05:47.541Z,0.00
2023-10-22T03:06:47.532Z,0.00
2023-10-22T03:07:47.493Z,0.00
2023-10-22T03:08:47.546Z,0.00
2023-10-22T03:09:47.545Z,0.00
2023-10-22T03:10:47.474Z,0.00
2023-10-22T03:11:47.479Z,0.00
2023-10-22T03:12:47.430Z,0.00
2023-10-22T03:13:47.423Z,0.00
2023-10-22T03:14:47.424Z,0.00
2023-10-22T03:15:47.460Z,0.00
2023-10-22T03:16:47.417Z,0.00
2023-10-22T03:17:47.476Z,0.00
2023-10-22T03:18:47.364Z,0.00
2023-10-22T03:19:47.376Z,0.00
2023-10-22T03:20:47.440Z,0.00
2023-10-22T03:21:47.342Z,0.00
2023-10-22T03:22:47.334Z,0.00
2023-10-22T03:23:47.389Z,0.00
2023-10-22T03:24:47.350Z,0.00
2023-10-22T03:25:47.315Z,0.00
2023-10-22T03:26:47.333Z,0.00
2023-10-22T03:27:47.304Z,0.00
2023-10-22T03:28:47.299Z,0.00
2023-10-22T03:29:47.308Z,0.00
2023-10-22T03:30:47.279Z,0.00
2023-10-22T03:31:47.248Z,0.00
2023-10-22T03:32:47.495Z,0.00
2023-10-22T03:33:47.243Z,0.00
2023-10-22T03:34:47.263Z,0.00
2023-10-22T03:35:47.243Z,0.00
2023-10-22T03:36:47.203Z,0.00
2023-10-22T03:37:47.198Z,0.00
2023-10-22T03:38:47.215Z,0.00
2023-10-22T03:39:47.192Z,0.00
2023-10-22T03:40:47.150Z,0.00
2023-10-22T03:41:47.195Z,0.00
2023-10-22T03:42:47.127Z,0.00
2023-10-22T03:43:47.149Z,0.00
2023-10-22T03:44:47.178Z,0.00
2023-10-22T03:45:47.092Z,0.00
2023-10-22T03:46:47.089Z,0.00
2023-10-22T03:47:47.163Z,0.00
2023-10-22T03:48:47.196Z,0.00
2023-10-22T03:49:47.089Z,0.00
2023-10-22T03:50:47.081Z,0.00
2023-10-22T03:51:47.042Z,0.00
2023-10-22T03:52:47.036Z,0.00
2023-10-22T03:53:47.086Z,0.00
2023-10-22T03:54:47.008Z,0.00
2023-10-22T03:55:47.016Z,0.00
2023-10-22T03:56:47.032Z,0.00
2023-10-22T03:57:47.023Z,0.00
2023-10-22T03:58:46.952Z,0.00
2023-10-22T03:59:46.999Z,0.00
2023-10-22T04:00:46.969Z,0.00
2023-10-22T04:01:46.972Z,0.00
2023-10-22T04:02:47.030Z,0.00
2023-10-22T04:03:46.940Z,0.00
2023-10-22T04:04:46.993Z,0.00
2023-10-22T04:05:46.918Z,0.00
2023-10-22T04:06:46.882Z,0.00
2023-10-22T04:07:46.879Z,0.00
2023-10-22T04:08:46.900Z,0.00
2023-10-22T04:09:48.313Z,0.00
2023-10-22T04:10:46.838Z,0.00
2023-10-22T04:11:46.906Z,0.00
2023-10-22T04:12:46.802Z,0.00
2023-10-22T04:13:46.817Z,0.00
2023-10-22T04:14:46.846Z,0.00
2023-10-22T04:15:46.812Z,0.00
2023-10-22T04:16:46.822Z,0.00
2023-10-22T04:17:46.812Z,0.00
2023-10-22T04:18:46.798Z,0.00
2023-10-22T04:19:46.749Z,0.00
2023-10-22T04:20:47.723Z,0.00
2023-10-22T04:21:46.734Z,0.00
2023-10-22T04:22:46.741Z,0.00
2023-10-22T04:23:46.718Z,0.00
2023-10-22T04:24:46.749Z,0.00
2023-10-22T04:25:46.725Z,0.00
2023-10-22T04:26:46.797Z,0.00
2023-10-22T04:27:46.646Z,0.00
2023-10-22T04:28:47.639Z,0.00
2023-10-22T04:29:46.640Z,0.00
2023-10-22T04:30:46.780Z,0.00
2023-10-22T04:31:46.659Z,0.00
2023-10-22T04:32:46.658Z,0.00
2023-10-22T04:33:46.734Z,0.00
2023-10-22T04:34:46.595Z,0.00
2023-10-22T04:35:46.584Z,0.00
2023-10-22T04:36:46.566Z,0.00
2023-10-22T04:37:46.550Z,0.00
2023-10-22T04:38:46.607Z,0.00
2023-10-22T04:39:46.514Z,0.00
2023-10-22T04:40:46.507Z,0.00
2023-10-22T04:41:46.557Z,0.00
2023-10-22T04:42:46.496Z,0.00
2023-10-22T04:43:46.478Z,0.00
2023-10-22T04:44:46.465Z,0.00
2023-10-22T04:45:46.451Z,0.00
2023-10-22T04:46:46.458Z,0.00
2023-10-22T04:47:46.639Z,0.00
2023-10-22T04:48:46.442Z,0.00
2023-10-22T04:49:46.406Z,0.00
2023-10-22T04:50:46.436Z,0.00
2023-10-22T04:51:46.407Z,0.00
2023-10-22T04:52:46.384Z,0.00
2023-10-22T04:53:46.418Z,0.00
2023-10-22T04:54:46.364Z,0.00
2023-10-22T04:55:46.344Z,0.00
2023-10-22T04:56:46.408Z,0.00
2023-10-22T04:57:46.323Z,0.00
2023-10-22T04:58:46.319Z,0.00
2023-10-22T04:59:46.346Z,0.00
2023-10-22T05:00:46.322Z,0.00
2023-10-22T05:01:46.328Z,0.00
2023-10-22T05:02:46.325Z,0.00
2023-10-22T05:03:46.304Z,0.00
2023-10-22T05:04:46.320Z,0.00
2023-10-22T05:05:46.300Z,0.00
2023-10-22T05:06:46.257Z,0.00
2023-10-22T05:07:46.271Z,0.00
2023-10-22T05:08:46.247Z,0.00
2023-10-22T05:09:46.213Z,0.00
2023-10-22T05:10:46.214Z,0.00
2023-10-22T05:11:46.261Z,0.00
2023-10-22T05:12:46.189Z,0.00
2023-10-22T05:13:46.227Z,0.00
2023-10-22T05:14:46.221Z,0.00
2023-10-22T05:15:46.162Z,0.00
2023-10-22T05:16:46.141Z,0.00
2023-10-22T05:17:46.242Z,0.00
2023-10-22T05:18:46.176Z,0.00
2023-10-22T05:19:46.284Z,0.00
2023-10-22T05:20:47.659Z,0.00
2023-10-22T05:21:46.086Z,0.00
2023-10-22T05:22:46.097Z,0.00
2023-10-22T05:23:46.101Z,0.00
2023-10-22T05:24:46.164Z,0.00
2023-10-22T05:25:46.044Z,0.00
2023-10-22T05:26:46.045Z,0.00
2023-10-22T05:27:45.988Z,0.00
2023-10-22T05:28:46.009Z,0.00
2023-10-22T05:29:46.093Z,0.00
2023-10-22T05:30:45.959Z,0.00
2023-10-22T05:31:46.010Z,0.00
2023-10-22T05:32:45.972Z,0.00
2023-10-22T05:33:46.007Z,0.00
2023-10-22T05:34:45.930Z,0.00
2023-10-22T05:35:45.900Z,0.00
2023-10-22T05:36:45.892Z,0.00
2023-10-22T05:37:45.892Z,0.00
2023-10-22T05:38:45.864Z,0.00
2023-10-22T05:39:45.830Z,0.00
2023-10-22T05:40:45.825Z,0.00
2023-10-22T05:41:45.849Z,0.00
2023-10-22T05:42:45.798Z,0.00
2023-10-22T05:43:45.826Z,0.00
2023-10-22T05:44:45.844Z,0.00
2023-10-22T05:45:45.825Z,0.00
2023-10-22T05:46:45.758Z,0.00
2023-10-22T05:47:45.861Z,0.00
2023-10-22T05:48:45.830Z,0.00
2023-10-22T05:49:45.732Z,0.00
2023-10-22T05:50:45.743Z,0.00
2023-10-22T05:51:45.735Z,0.00
2023-10-22T05:52:45.710Z,0.00
2023-10-22T05:53:45.712Z,0.00
2023-10-22T05:54:45.674Z,0.00
2023-10-22T05:55:45.665Z,0.00
2023-10-22T05:56:45.671Z,0.00
2023-10-22T05:57:45.702Z,0.00
2023-10-22T05:58:45.672Z,0.00
2023-10-22T05:59:45.642Z,0.00
2023-10-22T06:00:45.616Z,0.00
2023-10-22T06:01:45.670Z,0.00
2023-10-22T06:02:45.652Z,0.00
2023-10-22T06:03:47.445Z,0.00
2023-10-22T06:04:45.603Z,0.00
2023-10-22T06:05:45.597Z,0.00
2023-10-22T06:06:45.598Z,0.00
2023-10-22T06:07:45.741Z,0.00
2023-10-22T06:08:45.575Z,0.00
2023-10-22T06:09:45.545Z,0.00
2023-10-22T06:10:45.585Z,0.00
2023-10-22T06:11:45.533Z,0.00
2023-10-22T06:12:45.524Z,0.00
2023-10-22T06:13:45.479Z,0.00
2023-10-22T06:14:45.569Z,0.00
2023-10-22T06:15:45.460Z,0.00
2023-10-22T06:16:45.454Z,0.00
2023-10-22T06:17:45.504Z,0.00
2023-10-22T06:18:45.477Z,0.00
2023-10-22T06:19:45.457Z,0.00
2023-10-22T06:20:45.421Z,0.00
2023-10-22T06:21:45.388Z,0.00
2023-10-22T06:22:45.395Z,0.00
2023-10-22T06:23:45.440Z,0.00
2023-10-22T06:24:45.451Z,0.00
2023-10-22T06:25:45.407Z,0.00
2023-10-22T06:26:45.437Z,0.00
2023-10-22T06:27:45.350Z,0.00
2023-10-22T06:28:45.472Z,0.00
2023-10-22T06:29:45.337Z,0.00
2023-10-22T06:30:45.283Z,0.00
2023-10-22T06:31:45.309Z,0.00
2023-10-22T06:32:45.377Z,0.00
2023-10-22T06:33:45.427Z,0.00
2023-10-22T06:34:45.275Z,0.00
2023-10-22T06:35:45.254Z,0.00
2023-10-22T06:36:45.850Z,0.00
2023-10-22T06:37:45.270Z,5.62
2023-10-22T06:38:45.247Z,5.62
2023-10-22T06:39:45.184Z,5.62
2023-10-22T06:40:45.187Z,5.62
2023-10-22T06:41:45.258Z,5.62
2023-10-22T06:42:45.200Z,5.62
2023-10-22T06:43:45.159Z,5.62
2023-10-22T06:44:45.200Z,5.62
2023-10-22T06:45:45.130Z,5.62
2023-10-22T06:46:45.225Z,5.62
2023-10-22T06:47:45.180Z,5.62
2023-10-22T06:48:45.152Z,5.62
2023-10-22T06:49:45.084Z,5.62
2023-10-22T06:50:45.097Z,5.62
2023-10-22T06:51:45.090Z,5.62
2023-10-22T06:52:45.099Z,5.62
2023-10-22T06:53:45.048Z,5.62
2023-10-22T06:54:45.022Z,5.62
2023-10-22T06:55:45.055Z,5.62
2023-10-22T06:56:45.111Z,5.62
2023-10-22T06:57:46.116Z,5.62
2023-10-22T06:58:44.994Z,5.62
2023-10-22T06:59:45.010Z,5.62
2023-10-22T07:00:45.114Z,5.62
2023-10-22T07:01:45.014Z,5.62
2023-10-22T07:02:45.057Z,5.62
2023-10-22T07:03:45.193Z,5.62
2023-10-22T07:04:44.977Z,5.62
2023-10-22T07:05:44.988Z,5.62
2023-10-22T07:06:44.923Z,5.62
2023-10-22T07:07:44.939Z,5.62
2023-10-22T07:08:45.030Z,5.62
2023-10-22T07:09:44.868Z,5.62
2023-10-22T07:10:44.894Z,5.62
2023-10-22T07:11:45.054Z,5.62
2023-10-22T07:12:44.837Z,5.62
2023-10-22T07:13:44.840Z,5.62
2023-10-22T07:14:44.925Z,5.62
2023-10-22T07:15:46.407Z,5.62
2023-10-22T07:16:44.816Z,11.25
2023-10-22T07:17:44.974Z,11.25
2023-10-22T07:18:44.919Z,11.25
2023-10-22T07:19:44.819Z,11.25
2023-10-22T07:20:44.838Z,11.25
2023-10-22T07:21:44.799Z,11.25
2023-10-22T07:22:44.827Z,11.25
2023-10-22T07:23:44.825Z,16.88
2023-10-22T07:24:44.829Z,16.88
2023-10-22T07:25:44.736Z,16.88
2023-10-22T07:26:44.734Z,16.88
2023-10-22T07:27:44.708Z,16.88
2023-10-22T07:28:44.698Z,16.88
2023-10-22T07:29:44.750Z,16.88
2023-10-22T07:30:44.641Z,16.88
2023-10-22T07:31:44.681Z,16.88
2023-10-22T07:32:44.651Z,16.88
2023-10-22T07:33:44.695Z,16.88
2023-10-22T07:34:44.625Z,22.50
2023-10-22T07:35:44.627Z,22.50
2023-10-22T07:36:44.585Z,22.50
2023-10-22T07:37:44.578Z,33.75
2023-10-22T07:38:44.637Z,33.75
2023-10-22T07:39:44.617Z,33.75
2023-10-22T07:40:44.550Z,33.75
2023-10-22T07:41:44.588Z,39.38
2023-10-22T07:42:44.596Z,39.38
2023-10-22T07:43:44.535Z,39.38
2023-10-22T07:44:44.556Z,39.38
2023-10-22T07:45:44.535Z,39.38
2023-10-22T07:46:44.488Z,33.75
2023-10-22T07:47:44.750Z,39.38
2023-10-22T07:48:44.516Z,45.00
2023-10-22T07:49:44.467Z,39.38
2023-10-22T07:50:44.506Z,45.00
2023-10-22T07:51:44.468Z,45.00
2023-10-22T07:52:44.492Z,45.00
2023-10-22T07:53:44.463Z,39.38
2023-10-22T07:54:44.441Z,39.38
2023-10-22T07:55:44.394Z,39.38
2023-10-22T07:56:44.455Z,39.38
2023-10-22T07:57:44.452Z,39.38
2023-10-22T07:58:44.507Z,39.38
2023-10-22T07:59:44.415Z,39.38
2023-10-22T08:00:44.351Z,39.38
2023-10-22T08:01:44.348Z,39.38
2023-10-22T08:02:44.510Z,39.38
2023-10-22T08:03:44.334Z,33.75
2023-10-22T08:04:44.360Z,39.38
2023-10-22T08:05:44.327Z,33.75
2023-10-22T08:06:44.301Z,33.75
2023-10-22T08:07:44.268Z,33.75
2023-10-22T08:08:44.271Z,33.75
2023-10-22T08:09:44.243Z,33.75
2023-10-22T08:10:44.253Z,33.75
2023-10-22T08:11:44.275Z,33.75
2023-10-22T08:12:44.273Z,33.75
2023-10-22T08:13:44.215Z,33.75
2023-10-22T08:14:44.200Z,33.75
2023-10-22T08:15:44.239Z,33.75
2023-10-22T08:16:44.194Z,33.75
2023-10-22T08:17:46.854Z,33.75
2023-10-22T08:18:44.176Z,33.75
2023-10-22T08:19:44.298Z,33.75
2023-10-22T08:20:44.152Z,33.75
2023-10-22T08:21:44.119Z,33.75
2023-10-22T08:22:44.115Z,33.75
2023-10-22T08:23:44.109Z,33.75
2023-10-22T08:24:44.107Z,33.75
2023-10-22T08:25:44.120Z,33.75
2023-10-22T08:26:44.083Z,33.75
2023-10-22T08:27:44.080Z,33.75
2023-10-22T08:28:44.095Z,33.75
2023-10-22T08:29:44.335Z,33.75
2023-10-22T08:30:44.034Z,33.75
2023-10-22T08:31:44.057Z,33.75
2023-10-22T08:32:44.031Z,28.12
2023-10-22T08:33:44.042Z,28.12
2023-10-22T08:34:44.014Z,28.12
2023-10-22T08:35:43.977Z,28.12
2023-10-22T08:36:44.057Z,28.12
2023-10-22T08:37:43.963Z,28.12
2023-10-22T08:38:43.981Z,28.12
2023-10-22T08:39:43.967Z,28.12
2023-10-22T08:40:44.033Z,28.12
2023-10-22T08:41:43.944Z,28.12
2023-10-22T08:42:43.949Z,28.12
2023-10-22T08:43:43.967Z,28.12
2023-10-22T08:44:43.906Z,28.12
2023-10-22T08:45:44.860Z,28.12
2023-10-22T08:46:44.808Z,28.12
2023-10-22T08:47:43.882Z,33.75
2023-10-22T08:48:43.926Z,28.12
2023-10-22T08:49:43.829Z,28.12
2023-10-22T08:50:43.857Z,28.12
2023-10-22T08:51:43.800Z,28.12
2023-10-22T08:52:43.807Z,28.12
2023-10-22T08:53:43.808Z,28.12
2023-10-22T08:54:43.902Z,28.12
2023-10-22T08:55:43.758Z,28.12
2023-10-22T08:56:43.753Z,28.12
2023-10-22T08:57:43.761Z,28.12
2023-10-22T08:58:43.736Z,28.12
2023-10-22T08:59:43.715Z,28.12
2023-10-22T09:00:43.751Z,28.12
2023-10-22T09:01:43.688Z,33.75
2023-10-22T09:02:43.771Z,28.12
2023-10-22T09:03:43.763Z,28.12
2023-10-22T09:05:37.594Z,186508.12
2023-10-22T09:06:38.621Z,186508.12
2023-10-22T09:07:38.576Z,186508.12
2023-10-22T09:08:38.559Z,186508.12
2023-10-22T09:09:38.539Z,186508.12
2023-10-22T09:10:38.533Z,186508.12
2023-10-22T09:11:38.521Z,186508.12
2023-10-22T09:12:38.585Z,186508.12
2023-10-22T09:13:41.176Z,186508.12
2023-10-22T09:14:38.697Z,186508.12
2023-10-22T09:15:38.521Z,186508.12
2023-10-22T09:16:38.475Z,186508.12
2023-10-22T09:17:38.461Z,186508.12
2023-10-22T09:18:38.470Z,186508.12
2023-10-22T09:19:38.451Z,186508.12
2023-10-22T09:20:38.455Z,186508.12
2023-10-22T09:21:38.504Z,186508.12
2023-10-22T09:22:38.392Z,186508.12
2023-10-22T09:23:39.161Z,186508.12
2023-10-22T09:24:38.542Z,186508.12
2023-10-22T09:25:38.359Z,186508.12
2023-10-22T09:26:38.364Z,186508.12
2023-10-22T09:27:38.334Z,186508.12
2023-10-22T09:28:38.339Z,186508.12
2023-10-22T09:29:38.324Z,186508.12
2023-10-22T09:30:38.352Z,186508.12
2023-10-22T09:31:38.862Z,186508.12
2023-10-22T09:32:38.349Z,186508.12
2023-10-22T09:33:38.399Z,186508.12
2023-10-22T09:34:38.432Z,186508.12
2023-10-22T09:35:38.310Z,186508.12
2023-10-22T09:36:38.272Z,186508.12
2023-10-22T09:37:38.224Z,186508.12
2023-10-22T09:38:38.220Z,186508.12
2023-10-22T09:39:38.218Z,186508.12
2023-10-22T09:40:38.213Z,186508.12
2023-10-22T09:41:38.313Z,186508.12
2023-10-22T09:42:38.235Z,186508.12
2023-10-22T09:43:38.167Z,186508.12
2023-10-22T09:44:38.333Z,186508.12
2023-10-22T09:45:38.138Z,186508.12
2023-10-22T09:46:38.168Z,186508.12
2023-10-22T09:47:38.167Z,186508.12
2023-10-22T09:48:38.181Z,186508.12
2023-10-22T09:49:38.106Z,186508.12
2023-10-22T09:50:38.109Z,186508.12
2023-10-22T09:51:38.132Z,186508.12
2023-10-22T09:52:38.074Z,186508.12
2023-10-22T09:53:38.095Z,186508.12
2023-10-22T09:54:38.242Z,186508.12
2023-10-22T09:55:44.835Z,186508.12
2023-10-22T09:56:38.192Z,186508.12
2023-10-22T09:57:38.052Z,186508.12
2023-10-22T09:58:38.088Z,186508.12
2023-10-22T09:59:38.028Z,186508.12
2023-10-22T10:00:50.130Z,186508.12
2023-10-22T10:01:38.009Z,186508.12
2023-10-22T10:02:38.123Z,186508.12
2023-10-22T10:03:38.085Z,186508.12
2023-10-22T10:04:38.183Z,186508.12
2023-10-22T10:05:37.961Z,186508.12
2023-10-22T10:06:37.952Z,186508.12
2023-10-22T10:07:37.979Z,186508.12
2023-10-22T10:08:37.937Z,186508.12
2023-10-22T10:09:37.905Z,186508.12
2023-10-22T10:10:37.899Z,186508.12
2023-10-22T10:11:37.910Z,186508.12
2023-10-22T10:12:38.044Z,186508.12
2023-10-22T10:13:37.858Z,186508.12
2023-10-22T10:14:38.333Z,186508.12
2023-10-22T10:15:37.834Z,186508.12
2023-10-22T10:16:37.856Z,186508.12
2023-10-22T10:17:37.897Z,186508.12
2023-10-22T10:18:37.904Z,186508.12
2023-10-22T10:19:37.802Z,186508.12
2023-10-22T10:20:37.786Z,186508.12
2023-10-22T10:21:37.805Z,186508.12
2023-10-22T10:22:37.777Z,186508.12
2023-10-22T10:23:37.763Z,186508.12
2023-10-22T10:24:37.894Z,186508.12
2023-10-22T10:25:37.739Z,186508.12
2023-10-22T10:26:37.774Z,186508.12
2023-10-22T10:27:37.710Z,186508.12
2023-10-22T10:28:37.723Z,186508.12
2023-10-22T10:29:37.697Z,186508.12
2023-10-22T10:30:37.690Z,186508.12
2023-10-22T10:31:37.680Z,186508.12
2023-10-22T10:32:37.682Z,186508.12
2023-10-22T10:33:37.834Z,186508.12
2023-10-22T10:34:37.944Z,186508.12
2023-10-22T10:35:37.638Z,186508.12
2023-10-22T10:36:37.630Z,186508.12
2023-10-22T10:37:37.595Z,186508.12
2023-10-22T10:38:37.612Z,186508.12
2023-10-22T10:39:37.623Z,186508.12
2023-10-22T10:40:37.611Z,186508.12
2023-10-22T10:41:38.452Z,186508.12
2023-10-22T10:42:38.240Z,186508.12
2023-10-22T10:43:37.541Z,186508.12
2023-10-22T10:44:37.661Z,186508.12
2023-10-22T10:45:37.518Z,186508.12
2023-10-22T10:46:37.618Z,186508.12
2023-10-22T10:47:37.639Z,186508.12
2023-10-22T10:48:37.540Z,186508.12
2023-10-22T10:49:37.480Z,186508.12
2023-10-22T10:50:37.533Z,186508.12
2023-10-22T10:51:37.494Z,186508.12
2023-10-22T10:52:37.489Z,186508.12
2023-10-22T10:53:44.878Z,186508.12
2023-10-22T10:54:37.672Z,186508.12
2023-10-22T10:55:37.453Z,186508.12
2023-10-22T10:56:37.425Z,186508.12
2023-10-22T10:57:37.407Z,186508.12
2023-10-22T10:58:37.367Z,186508.12
2023-10-22T10:59:38.423Z,186508.12
2023-10-22T11:00:42.632Z,186508.12
2023-10-22T11:01:37.396Z,186508.12
2023-10-22T11:02:37.361Z,186508.12
2023-10-22T11:03:37.387Z,186508.12
2023-10-22T11:04:37.365Z,186508.12
2023-10-22T11:05:37.514Z,186508.12
2023-10-22T11:06:37.295Z,186508.12
2023-10-22T11:07:37.306Z,186508.12
2023-10-22T11:08:37.290Z,186508.12
2023-10-22T11:09:37.512Z,186508.12
2023-10-22T11:10:37.256Z,186508.12
2023-10-22T11:11:37.251Z,186508.12
2023-10-22T11:12:37.276Z,186508.12
2023-10-22T11:13:37.261Z,186508.12
2023-10-22T11:14:37.471Z,186508.12
2023-10-22T11:15:37.311Z,186508.12
2023-10-22T11:16:37.235Z,186508.12
2023-10-22T11:17:37.196Z,186508.12
2023-10-22T11:18:37.278Z,186508.12
2023-10-22T11:19:37.501Z,186508.12
2023-10-22T11:20:37.190Z,186508.12
2023-10-22T11:21:37.159Z,186508.12
2023-10-22T11:22:37.275Z,186508.12
2023-10-22T11:23:37.156Z,186508.12
2023-10-22T11:24:37.182Z,186508.12
2023-10-22T11:25:37.121Z,186508.12
2023-10-22T11:26:37.176Z,186508.12
2023-10-22T11:27:37.112Z,186508.12
2023-10-22T11:28:37.084Z,186508.12
2023-10-22T11:29:37.227Z,186508.12
2023-10-22T11:30:37.168Z,186508.12
2023-10-22T11:31:37.040Z,186508.12
2023-10-22T11:32:37.265Z,186508.12
2023-10-22T11:33:37.085Z,186508.12
2023-10-22T11:34:37.217Z,186508.12
2023-10-22T11:35:37.016Z,186508.12
2023-10-22T11:36:37.108Z,186508.12
2023-10-22T11:37:37.007Z,186508.12
2023-10-22T11:38:36.962Z,186508.12
2023-10-22T11:39:42.222Z,186508.12
2023-10-22T11:40:36.982Z,186508.12
2023-10-22T11:41:36.984Z,186508.12
2023-10-22T11:42:36.936Z,186508.12
2023-10-22T11:43:36.924Z,186508.12
2023-10-22T11:44:37.166Z,186508.12
2023-10-22T11:45:36.911Z,186508.12
2023-10-22T11:46:36.953Z,186508.12
2023-10-22T11:47:36.936Z,186508.12
2023-10-22T11:48:36.922Z,186508.12
2023-10-22T11:49:36.868Z,186508.12
2023-10-22T11:50:36.853Z,186508.12
2023-10-22T11:51:36.881Z,186508.12
2023-10-22T11:52:36.815Z,186508.12
2023-10-22T11:53:36.796Z,186508.12
2023-10-22T11:54:36.936Z,186508.12
2023-10-22T11:55:37.732Z,186508.12
2023-10-22T11:56:36.791Z,186508.12
2023-10-22T11:57:36.782Z,186508.12
2023-10-22T11:58:36.779Z,186508.12
2023-10-22T11:59:36.746Z,186508.12
2023-10-22T12:00:36.798Z,186508.12
2023-10-22T12:01:36.824Z,186508.12
2023-10-22T12:02:36.779Z,186508.12
2023-10-22T12:03:36.881Z,186508.12
2023-10-22T12:04:36.909Z,186508.12
2023-10-22T12:05:36.712Z,186508.12
2023-10-22T12:06:36.687Z,186508.12
2023-10-22T12:07:36.654Z,186508.12
2023-10-22T12:08:36.649Z,186508.12
2023-10-22T12:09:36.724Z,186508.12
2023-10-22T12:10:36.641Z,186508.12
2023-10-22T12:11:36.657Z,186508.12
2023-10-22T12:12:36.602Z,186508.12
2023-10-22T12:13:36.635Z,186508.12
2023-10-22T12:14:36.844Z,186508.12
2023-10-22T12:15:36.818Z,186508.12
2023-10-22T12:16:36.630Z,186508.12
2023-10-22T12:17:36.562Z,186508.12
2023-10-22T12:18:36.629Z,186508.12
2023-10-22T12:19:36.576Z,186508.12
2023-10-22T12:20:36.534Z,186508.12
2023-10-22T12:21:36.518Z,186508.12
2023-10-22T12:22:36.547Z,186508.12
2023-10-22T12:23:48.905Z,186508.12
2023-10-22T12:24:36.561Z,186508.12
2023-10-22T12:25:36.464Z,186508.12
2023-10-22T12:26:36.478Z,186508.12
2023-10-22T12:27:36.515Z,186508.12
2023-10-22T12:28:36.552Z,186508.12
2023-10-22T12:29:36.435Z,186508.12
2023-10-22T12:30:36.459Z,186508.12
2023-10-22T12:31:36.408Z,186508.12
2023-10-22T12:32:36.440Z,186508.12
2023-10-22T12:33:36.520Z,186508.12
2023-10-22T12:34:36.562Z,186508.12
2023-10-22T12:35:36.376Z,186508.12
2023-10-22T12:36:36.355Z,186508.12
2023-10-22T12:37:36.336Z,186508.12
2023-10-22T12:38:36.369Z,186508.12
2023-10-22T12:39:36.503Z,186508.12